Terminal Aerodrome Forecast
Issued by NWS Amarillo, TX

Home | Current Version | Previous Version | Text Only | Print | Product List | Glossary On
Versions: 1 2 3 4 5 6 7 8 9 10 11 12 13
000
FTUS44 KAMA 281100
TAFGUY
TAF
KGUY 281124Z 2812/2912 23009KT P6SM SKC
     FM281300 27010KT P6SM SCT300 WS016/32046KT
     FM281700 33015KT P6SM SCT300=

USA.gov is the U.S. government's official web portal to all federal, state and local government web resources and services.